createdAt,value
2018-12-30T00:00:11.150Z,9.05
2018-12-30T00:02:39.687Z,9.28
2018-12-30T00:05:08.592Z,9.73
2018-12-30T00:07:37.498Z,9.53
2018-12-30T00:10:07.013Z,9.17
2018-12-30T00:12:35.578Z,8.96
2018-12-30T00:15:04.602Z,8.95
2018-12-30T00:17:33.189Z,8.94
2018-12-30T00:20:02.011Z,8.93
2018-12-30T00:22:30.604Z,8.97
2018-12-30T00:24:59.129Z,8.84
2018-12-30T00:27:27.783Z,8.91
2018-12-30T00:29:56.415Z,8.90
2018-12-30T00:32:25.391Z,8.97
2018-12-30T00:34:54.004Z,9.16
2018-12-30T00:37:22.554Z,9.35
2018-12-30T00:39:51.177Z,9.56
2018-12-30T00:42:19.806Z,9.50
2018-12-30T00:44:48.394Z,9.22
2018-12-30T00:47:16.982Z,9.00
2018-12-30T00:49:45.584Z,9.05
2018-12-30T00:52:14.248Z,8.99
2018-12-30T00:54:42.839Z,9.00
2018-12-30T00:57:11.460Z,8.94
2018-12-30T00:59:41.725Z,8.95
2018-12-30T01:02:10.353Z,8.97
2018-12-30T01:04:38.897Z,9.07
2018-12-30T01:07:07.980Z,9.08
2018-12-30T01:09:37.319Z,9.14
2018-12-30T01:12:05.901Z,9.31
2018-12-30T01:14:34.452Z,9.63
2018-12-30T01:17:03.005Z,9.69
2018-12-30T01:19:31.554Z,9.54
2018-12-30T01:22:00.565Z,9.35
2018-12-30T01:24:29.143Z,9.21
2018-12-30T01:26:57.779Z,9.25
2018-12-30T01:29:26.376Z,9.30
2018-12-30T01:31:55.026Z,9.28
2018-12-30T01:34:23.639Z,9.24
2018-12-30T01:36:52.288Z,9.07
2018-12-30T01:39:20.804Z,9.14
2018-12-30T01:41:49.425Z,9.16
2018-12-30T01:44:17.945Z,9.16
2018-12-30T01:46:46.458Z,9.21
2018-12-30T01:49:15.085Z,9.44
2018-12-30T01:51:43.710Z,9.51
2018-12-30T01:54:12.746Z,9.34
2018-12-30T01:56:41.342Z,9.22
2018-12-30T01:59:09.930Z,9.00
2018-12-30T02:01:38.490Z,8.85
2018-12-30T02:04:07.675Z,8.78
2018-12-30T02:06:36.218Z,8.79
2018-12-30T02:09:06.665Z,8.70
2018-12-30T02:11:35.284Z,8.74
2018-12-30T02:14:03.746Z,8.91
2018-12-30T02:16:32.188Z,8.89
2018-12-30T02:19:00.795Z,8.91
2018-12-30T02:21:29.531Z,9.03
2018-12-30T02:23:58.067Z,9.29
2018-12-30T02:26:26.694Z,9.60
2018-12-30T02:28:55.275Z,9.47
2018-12-30T02:31:23.904Z,9.37
2018-12-30T02:33:52.482Z,9.24
2018-12-30T02:36:21.038Z,9.02
2018-12-30T02:38:49.558Z,8.95
2018-12-30T02:41:18.260Z,8.98
2018-12-30T02:43:46.769Z,8.79
2018-12-30T02:46:15.899Z,8.75
2018-12-30T02:48:44.486Z,8.90
2018-12-30T02:51:13.018Z,8.88
2018-12-30T02:53:41.631Z,8.88
2018-12-30T02:56:10.169Z,9.03
2018-12-30T02:58:38.694Z,9.21
2018-12-30T03:01:07.990Z,9.49
2018-12-30T03:03:36.565Z,9.45
2018-12-30T03:06:05.176Z,9.03
2018-12-30T03:08:33.618Z,8.83
2018-12-30T03:11:02.263Z,8.79
2018-12-30T03:13:30.850Z,8.64
2018-12-30T03:15:59.475Z,8.49
2018-12-30T03:18:27.996Z,8.59
2018-12-30T03:20:56.687Z,8.63
2018-12-30T03:23:25.224Z,8.73
2018-12-30T03:25:53.831Z,8.92
2018-12-30T03:28:22.355Z,8.92
2018-12-30T03:30:50.855Z,8.98
2018-12-30T03:33:19.533Z,9.12
2018-12-30T03:35:48.129Z,9.41
2018-12-30T03:38:16.645Z,9.45
2018-12-30T03:40:45.255Z,9.21
2018-12-30T03:43:14.078Z,9.16
2018-12-30T03:45:42.657Z,9.09
2018-12-30T03:48:11.283Z,8.88
2018-12-30T03:50:39.903Z,8.71
2018-12-30T03:53:08.476Z,8.68
2018-12-30T03:55:37.019Z,8.69
2018-12-30T03:58:05.603Z,8.75
2018-12-30T04:00:34.162Z,8.82
2018-12-30T04:03:02.678Z,8.81
2018-12-30T04:05:31.300Z,8.79
2018-12-30T04:07:59.902Z,8.97
2018-12-30T04:10:28.469Z,9.21
2018-12-30T04:12:56.948Z,9.45
2018-12-30T04:15:25.712Z,9.21
2018-12-30T04:17:54.235Z,8.95
2018-12-30T04:20:22.822Z,8.81
2018-12-30T04:22:51.287Z,8.68
2018-12-30T04:25:19.892Z,8.55
2018-12-30T04:27:48.528Z,8.64
2018-12-30T04:30:16.976Z,8.66
2018-12-30T04:32:45.604Z,8.72
2018-12-30T04:35:14.197Z,8.83
2018-12-30T04:37:42.892Z,8.94
2018-12-30T04:40:11.409Z,9.04
2018-12-30T04:42:40.058Z,9.18
2018-12-30T04:45:08.705Z,9.34
2018-12-30T04:47:37.328Z,9.65
2018-12-30T04:50:06.710Z,9.32
2018-12-30T04:52:35.316Z,9.22
2018-12-30T04:55:03.919Z,9.07
2018-12-30T04:57:32.465Z,8.93
2018-12-30T05:00:01.052Z,9.02
2018-12-30T05:02:29.642Z,8.85
2018-12-30T05:04:58.234Z,8.70
2018-12-30T05:07:26.860Z,8.61
2018-12-30T05:09:55.296Z,8.72
2018-12-30T05:12:23.893Z,8.73
2018-12-30T05:14:52.520Z,8.85
2018-12-30T05:17:21.045Z,8.87
2018-12-30T05:19:49.587Z,9.03
2018-12-30T05:22:18.119Z,9.37
2018-12-30T05:24:46.667Z,9.40
2018-12-30T05:27:15.145Z,9.07
2018-12-30T05:29:43.752Z,8.74
2018-12-30T05:32:12.235Z,8.70
2018-12-30T05:34:40.922Z,8.57
2018-12-30T05:37:09.529Z,8.54
2018-12-30T05:39:38.813Z,8.32
2018-12-30T05:42:07.250Z,8.25
2018-12-30T05:44:35.850Z,8.33
2018-12-30T05:47:05.840Z,8.57
2018-12-30T05:49:34.471Z,8.79
2018-12-30T05:52:03.096Z,8.87
2018-12-30T05:54:31.688Z,9.05
2018-12-30T05:57:00.304Z,9.23
2018-12-30T05:59:28.923Z,9.31
2018-12-30T06:01:57.484Z,9.09
2018-12-30T06:04:26.143Z,8.75
2018-12-30T06:06:54.754Z,8.40
2018-12-30T06:09:23.288Z,8.49
2018-12-30T06:11:51.880Z,8.23
2018-12-30T06:14:20.351Z,8.20
2018-12-30T06:16:48.995Z,8.25
2018-12-30T06:19:17.539Z,8.45
2018-12-30T06:21:46.062Z,8.63
2018-12-30T06:24:14.696Z,8.70
2018-12-30T06:26:43.274Z,8.72
2018-12-30T06:29:11.738Z,8.81
2018-12-30T06:31:40.365Z,9.06
2018-12-30T06:34:09.134Z,9.36
2018-12-30T06:36:37.723Z,9.23
2018-12-30T06:39:06.837Z,9.01
2018-12-30T06:41:35.390Z,8.69
2018-12-30T06:44:04.017Z,8.50
2018-12-30T06:46:32.557Z,8.28
2018-12-30T06:49:01.181Z,8.27
2018-12-30T06:51:29.779Z,8.19
2018-12-30T06:53:58.297Z,8.27
2018-12-30T06:56:26.917Z,8.38
2018-12-30T06:58:55.509Z,8.48
2018-12-30T07:01:24.120Z,8.45
2018-12-30T07:03:52.813Z,8.66
2018-12-30T07:06:21.411Z,8.84
2018-12-30T07:08:49.883Z,9.14
2018-12-30T07:11:18.466Z,9.04
2018-12-30T07:13:46.982Z,8.92
2018-12-30T07:16:15.414Z,8.72
2018-12-30T07:18:44.028Z,8.64
2018-12-30T07:21:12.594Z,8.58
2018-12-30T07:23:41.177Z,8.61
2018-12-30T07:26:09.681Z,8.54
2018-12-30T07:28:39.165Z,8.50
2018-12-30T07:31:07.739Z,8.31
2018-12-30T07:33:36.371Z,8.30
2018-12-30T07:36:05.072Z,8.32
2018-12-30T07:38:33.664Z,8.48
2018-12-30T07:41:02.173Z,8.63
2018-12-30T07:43:30.793Z,8.94
2018-12-30T07:45:59.314Z,9.01
2018-12-30T07:48:27.945Z,8.80
2018-12-30T07:50:56.541Z,8.64
2018-12-30T07:53:25.058Z,8.65
2018-12-30T07:55:53.537Z,8.46
2018-12-30T07:58:22.008Z,8.45
2018-12-30T08:00:50.544Z,8.58
2018-12-30T08:03:19.197Z,8.55
2018-12-30T08:05:47.697Z,8.71
2018-12-30T08:08:16.347Z,8.86
2018-12-30T08:10:44.860Z,8.88
2018-12-30T08:13:13.364Z,9.04
2018-12-30T08:15:42.001Z,8.99
2018-12-30T08:18:10.563Z,9.16
2018-12-30T08:20:39.584Z,9.41
2018-12-30T08:23:08.096Z,9.17
2018-12-30T08:25:36.731Z,8.84
2018-12-30T08:28:05.255Z,8.76
2018-12-30T08:30:33.875Z,8.46
2018-12-30T08:33:02.401Z,8.27
2018-12-30T08:35:31.011Z,8.26
2018-12-30T08:37:59.624Z,8.25
2018-12-30T08:40:28.288Z,8.48
2018-12-30T08:42:56.900Z,8.81
2018-12-30T08:45:25.600Z,8.89
2018-12-30T08:47:54.184Z,8.90
2018-12-30T08:50:22.866Z,9.10
2018-12-30T08:52:51.500Z,9.35
2018-12-30T08:55:20.109Z,9.60
2018-12-30T08:57:48.589Z,9.42
2018-12-30T09:00:17.209Z,9.26
2018-12-30T09:02:45.787Z,9.09
2018-12-30T09:05:14.398Z,8.91
2018-12-30T09:07:43.100Z,8.66
2018-12-30T09:10:11.575Z,8.73
2018-12-30T09:12:40.190Z,8.98
2018-12-30T09:15:09.833Z,9.28
2018-12-30T09:17:38.456Z,9.60
2018-12-30T09:20:07.044Z,9.83
2018-12-30T09:22:35.690Z,10.01
2018-12-30T09:25:04.780Z,10.08
2018-12-30T09:27:33.271Z,10.18
2018-12-30T09:30:01.869Z,10.34
2018-12-30T09:32:30.421Z,10.22
2018-12-30T09:34:58.932Z,9.90
2018-12-30T09:37:27.492Z,9.52
2018-12-30T09:39:56.171Z,9.29
2018-12-30T09:42:24.745Z,9.07
2018-12-30T09:44:53.310Z,8.92
2018-12-30T09:47:22.088Z,8.88
2018-12-30T09:49:50.755Z,8.78
2018-12-30T09:52:19.333Z,8.83
2018-12-30T09:54:47.893Z,8.94
2018-12-30T09:57:16.480Z,9.32
2018-12-30T09:59:45.094Z,9.57
2018-12-30T10:02:13.708Z,9.82
2018-12-30T10:04:42.360Z,10.15
2018-12-30T10:07:10.966Z,10.27
2018-12-30T10:09:40.180Z,9.95
2018-12-30T10:12:08.774Z,9.62
2018-12-30T10:14:37.405Z,9.36
2018-12-30T10:17:05.991Z,9.21
2018-12-30T10:19:34.532Z,9.19
2018-12-30T10:22:03.145Z,9.18
2018-12-30T10:24:31.725Z,9.12
2018-12-30T10:27:00.216Z,9.08
2018-12-30T10:29:28.737Z,9.21
2018-12-30T10:31:57.451Z,9.15
2018-12-30T10:34:25.970Z,9.10
2018-12-30T10:36:54.482Z,9.36
2018-12-30T10:39:23.066Z,9.71
2018-12-30T10:41:51.757Z,10.03
2018-12-30T10:44:20.360Z,9.76
2018-12-30T10:46:48.952Z,9.55
2018-12-30T10:49:17.585Z,9.24
2018-12-30T10:51:46.177Z,8.95
2018-12-30T10:54:14.759Z,9.17
2018-12-30T10:56:43.394Z,9.16
2018-12-30T10:59:12.023Z,9.06
2018-12-30T11:03:46.372Z,9.31
2018-12-30T11:08:19.089Z,9.93
2018-12-30T11:10:47.729Z,10.11
2018-12-30T11:13:16.247Z,9.93
2018-12-30T11:15:44.911Z,9.75
2018-12-30T11:18:13.563Z,9.65
2018-12-30T11:20:42.193Z,9.76
2018-12-30T11:23:10.809Z,9.70
2018-12-30T11:25:39.395Z,9.54
2018-12-30T11:28:08.023Z,9.56
2018-12-30T11:30:36.603Z,9.67
2018-12-30T11:33:05.210Z,9.72
2018-12-30T11:35:33.742Z,9.62
2018-12-30T11:38:02.434Z,9.57
2018-12-30T11:40:31.037Z,9.63
2018-12-30T11:42:59.699Z,9.85
2018-12-30T11:45:28.342Z,10.04
2018-12-30T11:47:57.057Z,10.18
2018-12-30T11:50:25.633Z,9.98
2018-12-30T11:52:54.280Z,9.78
2018-12-30T11:55:22.903Z,9.47
2018-12-30T11:57:51.483Z,9.41
2018-12-30T12:00:20.086Z,9.31
2018-12-30T12:02:48.711Z,9.19
2018-12-30T12:05:17.254Z,9.23
2018-12-30T12:07:45.894Z,9.38
2018-12-30T12:10:14.513Z,9.41
2018-12-30T12:12:48.864Z,9.62
2018-12-30T12:15:13.584Z,9.81
2018-12-30T12:17:42.202Z,9.87
2018-12-30T12:20:10.951Z,10.05
2018-12-30T12:22:39.595Z,10.15
2018-12-30T12:25:08.208Z,10.14
2018-12-30T12:27:36.747Z,10.05
2018-12-30T12:30:06.596Z,9.85
2018-12-30T12:32:35.216Z,9.65
2018-12-30T12:35:03.853Z,9.55
2018-12-30T12:37:32.436Z,9.51
2018-12-30T12:40:00.988Z,9.53
2018-12-30T12:42:29.612Z,9.60
2018-12-30T12:44:58.244Z,9.76
2018-12-30T12:47:26.765Z,9.84
2018-12-30T12:49:55.370Z,9.93
2018-12-30T12:52:23.998Z,10.02
2018-12-30T12:54:52.637Z,10.16
2018-12-30T12:57:21.363Z,10.45
2018-12-30T12:59:49.816Z,10.38
2018-12-30T13:02:18.353Z,10.03
2018-12-30T13:04:47.052Z,9.84
2018-12-30T13:07:15.770Z,9.78
2018-12-30T13:09:44.429Z,9.70
2018-12-30T13:12:12.974Z,9.56
2018-12-30T13:14:41.530Z,9.48
2018-12-30T13:17:10.175Z,9.59
2018-12-30T13:19:38.915Z,9.54
2018-12-30T13:22:07.506Z,9.55
2018-12-30T13:24:39.909Z,9.64
2018-12-30T13:27:06.379Z,9.73
2018-12-30T13:29:34.963Z,9.84
2018-12-30T13:32:03.664Z,9.93
2018-12-30T13:34:32.298Z,10.01
2018-12-30T13:37:00.734Z,9.77
2018-12-30T13:39:29.360Z,9.36
2018-12-30T13:41:57.950Z,9.29
2018-12-30T13:44:26.499Z,9.38
2018-12-30T13:46:55.152Z,9.26
2018-12-30T13:49:23.869Z,9.20
2018-12-30T13:51:53.313Z,9.34
2018-12-30T13:54:22.094Z,9.33
2018-12-30T13:56:50.632Z,9.36
2018-12-30T13:59:19.380Z,9.41
2018-12-30T14:01:48.005Z,9.43
2018-12-30T14:04:16.689Z,9.56
2018-12-30T14:06:45.438Z,9.68
2018-12-30T14:09:14.039Z,9.92
2018-12-30T14:11:42.590Z,9.70
2018-12-30T14:14:11.572Z,9.46
2018-12-30T14:16:40.181Z,9.31
2018-12-30T14:19:08.804Z,9.11
2018-12-30T14:21:37.330Z,9.05
2018-12-30T14:24:05.928Z,9.09
2018-12-30T14:26:34.488Z,9.28
2018-12-30T14:29:03.052Z,9.25
2018-12-30T14:31:31.644Z,9.35
2018-12-30T14:34:00.284Z,9.44
2018-12-30T14:36:28.983Z,9.50
2018-12-30T14:38:57.705Z,9.58
2018-12-30T14:41:26.310Z,9.71
2018-12-30T14:43:54.960Z,9.80
2018-12-30T14:46:23.525Z,9.81
2018-12-30T14:48:52.173Z,9.57
2018-12-30T14:51:20.847Z,9.45
2018-12-30T14:53:49.513Z,9.21
2018-12-30T14:56:18.068Z,9.02
2018-12-30T14:58:46.746Z,8.93
2018-12-30T15:01:15.366Z,8.91
2018-12-30T15:03:44.088Z,9.02
2018-12-30T15:06:12.677Z,9.01
2018-12-30T15:08:41.627Z,9.10
2018-12-30T15:11:10.380Z,9.23
2018-12-30T15:13:38.963Z,9.27
2018-12-30T15:16:07.734Z,9.38
2018-12-30T15:18:36.456Z,9.53
2018-12-30T15:21:04.986Z,9.62
2018-12-30T15:23:33.573Z,9.23
2018-12-30T15:26:02.208Z,9.23
2018-12-30T15:28:30.840Z,9.01
2018-12-30T15:30:59.439Z,8.81
2018-12-30T15:33:28.013Z,8.70
2018-12-30T15:35:56.536Z,8.68
2018-12-30T15:38:25.103Z,8.65
2018-12-30T15:40:53.756Z,8.77
2018-12-30T15:43:22.298Z,8.93
2018-12-30T15:45:50.935Z,8.90
2018-12-30T15:48:19.519Z,8.91
2018-12-30T15:50:48.165Z,8.98
2018-12-30T15:53:16.763Z,9.15
2018-12-30T15:55:45.424Z,9.26
2018-12-30T15:58:14.016Z,9.17
2018-12-30T16:00:42.615Z,8.94
2018-12-30T16:03:12.074Z,8.75
2018-12-30T16:05:40.668Z,8.68
2018-12-30T16:08:09.326Z,8.58
2018-12-30T16:10:38.174Z,8.61
2018-12-30T16:13:06.719Z,8.67
2018-12-30T16:15:35.269Z,8.63
2018-12-30T16:18:03.813Z,8.60
2018-12-30T16:20:32.397Z,8.63
2018-12-30T16:23:01.024Z,8.66
2018-12-30T16:25:29.587Z,8.62
2018-12-30T16:27:58.311Z,8.72
2018-12-30T16:30:26.964Z,8.89
2018-12-30T16:32:55.748Z,8.94
2018-12-30T16:35:24.406Z,8.71
2018-12-30T16:37:52.844Z,8.51
2018-12-30T16:40:21.493Z,8.40
2018-12-30T16:42:50.133Z,8.31
2018-12-30T16:45:18.704Z,8.23
2018-12-30T16:47:47.239Z,8.25
2018-12-30T16:50:15.878Z,8.33
2018-12-30T16:52:44.595Z,8.44
2018-12-30T16:55:13.197Z,8.46
2018-12-30T16:57:42.218Z,8.48
2018-12-30T17:00:10.803Z,8.54
2018-12-30T17:02:39.460Z,8.58
2018-12-30T17:05:08.839Z,8.72
2018-12-30T17:07:37.361Z,8.96
2018-12-30T17:10:08.351Z,8.85
2018-12-30T17:12:36.942Z,8.54
2018-12-30T17:15:07.912Z,8.34
2018-12-30T17:17:36.562Z,8.28
2018-12-30T17:20:06.598Z,8.20
2018-12-30T17:22:35.143Z,8.10
2018-12-30T17:25:03.862Z,8.29
2018-12-30T17:27:32.464Z,8.56
2018-12-30T17:30:02.215Z,8.59
2018-12-30T17:32:30.903Z,8.58
2018-12-30T17:34:59.539Z,8.61
2018-12-30T17:37:28.184Z,8.65
2018-12-30T17:39:56.824Z,8.71
2018-12-30T17:42:25.501Z,8.89
2018-12-30T17:44:54.156Z,8.81
2018-12-30T17:47:22.786Z,8.67
2018-12-30T17:49:51.473Z,8.55
2018-12-30T17:52:20.093Z,8.34
2018-12-30T17:54:48.628Z,8.26
2018-12-30T17:57:17.335Z,8.24
2018-12-30T17:59:45.956Z,8.33
2018-12-30T18:02:14.863Z,8.41
2018-12-30T18:04:43.372Z,8.52
2018-12-30T18:07:12.497Z,8.65
2018-12-30T18:09:41.122Z,8.75
2018-12-30T18:12:09.835Z,8.75
2018-12-30T18:14:38.463Z,8.87
2018-12-30T18:17:07.073Z,9.04
2018-12-30T18:19:35.654Z,9.16
2018-12-30T18:22:04.323Z,8.94
2018-12-30T18:24:32.866Z,8.69
2018-12-30T18:27:01.453Z,8.44
2018-12-30T18:29:30.126Z,8.35
2018-12-30T18:31:58.733Z,8.39
2018-12-30T18:34:27.340Z,8.62
2018-12-30T18:36:55.989Z,8.62
2018-12-30T18:39:24.540Z,8.75
2018-12-30T18:41:53.145Z,8.73
2018-12-30T18:44:21.737Z,8.78
2018-12-30T18:46:50.437Z,8.94
2018-12-30T18:49:19.034Z,8.97
2018-12-30T18:51:47.789Z,9.03
2018-12-30T18:54:16.504Z,9.24
2018-12-30T18:56:45.268Z,9.18
2018-12-30T18:59:13.894Z,8.98
2018-12-30T19:01:42.484Z,8.77
2018-12-30T19:04:11.180Z,8.53
2018-12-30T19:06:39.843Z,8.37
2018-12-30T19:09:08.495Z,8.36
2018-12-30T19:11:37.104Z,8.46
2018-12-30T19:14:05.909Z,8.65
2018-12-30T19:16:34.609Z,8.87
2018-12-30T19:19:03.334Z,9.00
2018-12-30T19:21:31.820Z,9.02
2018-12-30T19:24:00.399Z,8.99
2018-12-30T19:26:28.964Z,9.17
2018-12-30T19:28:57.538Z,9.57
2018-12-30T19:31:26.160Z,9.53
2018-12-30T19:33:54.778Z,9.20
2018-12-30T19:36:23.368Z,8.96
2018-12-30T19:38:52.023Z,8.64
2018-12-30T19:41:20.735Z,8.54
2018-12-30T19:43:49.359Z,8.61
2018-12-30T19:46:18.129Z,8.57
2018-12-30T19:48:46.643Z,8.52
2018-12-30T19:51:15.347Z,8.69
2018-12-30T19:53:44.008Z,8.80
2018-12-30T19:56:12.644Z,8.98
2018-12-30T19:58:41.336Z,9.17
2018-12-30T20:01:10.100Z,9.24
2018-12-30T20:03:38.754Z,9.39
2018-12-30T20:06:07.508Z,9.68
2018-12-30T20:08:36.101Z,9.36
2018-12-30T20:11:04.979Z,9.13
2018-12-30T20:13:33.607Z,8.76
2018-12-30T20:16:02.211Z,8.58
2018-12-30T20:18:30.842Z,8.43
2018-12-30T20:20:59.477Z,8.45
2018-12-30T20:23:28.215Z,8.59
2018-12-30T20:25:56.821Z,8.68
2018-12-30T20:28:25.563Z,8.88
2018-12-30T20:30:54.289Z,9.14
2018-12-30T20:33:22.961Z,9.33
2018-12-30T20:35:51.615Z,9.50
2018-12-30T20:38:20.239Z,9.64
2018-12-30T20:40:48.885Z,9.88
2018-12-30T20:43:17.567Z,9.91
2018-12-30T20:45:46.213Z,9.60
2018-12-30T20:48:15.395Z,9.23
2018-12-30T20:50:44.039Z,9.01
2018-12-30T20:53:12.614Z,8.97
2018-12-30T20:55:41.328Z,9.16
2018-12-30T20:58:09.936Z,9.06
2018-12-30T21:00:38.395Z,8.98
2018-12-30T21:03:07.040Z,9.14
2018-12-30T21:05:35.569Z,9.19
2018-12-30T21:08:04.250Z,9.46
2018-12-30T21:10:32.918Z,9.60
2018-12-30T21:13:01.578Z,9.73
2018-12-30T21:15:30.330Z,9.89
2018-12-30T21:17:59.030Z,10.02
2018-12-30T21:20:27.927Z,9.71
2018-12-30T21:22:56.562Z,9.44
2018-12-30T21:25:25.082Z,9.39
2018-12-30T21:27:53.754Z,9.38
2018-12-30T21:30:22.403Z,9.30
2018-12-30T21:32:52.652Z,9.23
2018-12-30T21:35:21.252Z,9.29
2018-12-30T21:37:49.954Z,9.32
2018-12-30T21:40:18.713Z,9.55
2018-12-30T21:42:47.353Z,9.72
2018-12-30T21:45:15.922Z,9.79
2018-12-30T21:47:45.947Z,9.92
2018-12-30T21:50:15.808Z,10.01
2018-12-30T21:52:44.450Z,10.13
2018-12-30T21:55:13.137Z,10.03
2018-12-30T21:57:41.689Z,9.72
2018-12-30T22:00:10.475Z,9.50
2018-12-30T22:02:39.151Z,9.27
2018-12-30T22:05:07.812Z,9.19
2018-12-30T22:07:36.478Z,9.20
2018-12-30T22:10:06.807Z,9.29
2018-12-30T22:12:35.508Z,9.51
2018-12-30T22:15:05.148Z,9.69
2018-12-30T22:17:33.758Z,9.80
2018-12-30T22:20:02.388Z,9.89
2018-12-30T22:22:31.031Z,10.04
2018-12-30T22:24:59.612Z,10.29
2018-12-30T22:27:42.036Z,10.29
2018-12-30T22:30:10.640Z,10.16
2018-12-30T22:32:39.284Z,9.75
2018-12-30T22:35:07.947Z,9.52
2018-12-30T22:37:36.487Z,9.28
2018-12-30T22:40:07.233Z,9.20
2018-12-30T22:42:35.814Z,9.16
2018-12-30T22:45:05.276Z,9.33
2018-12-30T22:47:33.911Z,9.28
2018-12-30T22:50:02.540Z,9.24
2018-12-30T22:52:31.227Z,9.49
2018-12-30T22:54:59.886Z,9.58
2018-12-30T22:57:28.481Z,9.75
2018-12-30T22:59:57.450Z,9.92
2018-12-30T23:02:26.113Z,10.12
2018-12-30T23:04:54.857Z,10.29
2018-12-30T23:07:23.531Z,9.90
2018-12-30T23:09:52.064Z,9.30
2018-12-30T23:12:20.642Z,9.00
2018-12-30T23:14:49.317Z,8.90
2018-12-30T23:17:18.869Z,8.73
2018-12-30T23:19:47.458Z,8.67
2018-12-30T23:22:16.005Z,8.75
2018-12-30T23:24:44.710Z,8.91
2018-12-30T23:27:13.315Z,9.29
2018-12-30T23:29:42.015Z,9.58
2018-12-30T23:32:10.554Z,9.59
2018-12-30T23:34:39.200Z,9.58
2018-12-30T23:37:07.662Z,9.78
2018-12-30T23:39:36.259Z,10.32
2018-12-30T23:42:04.897Z,10.19
2018-12-30T23:44:33.445Z,9.83
2018-12-30T23:47:02.099Z,9.34
2018-12-30T23:49:30.735Z,9.19
2018-12-30T23:51:59.323Z,9.15
2018-12-30T23:54:28.018Z,9.22
2018-12-30T23:56:56.652Z,9.05
2018-12-30T23:59:25.249Z,9.05
